Time;durP1;ratioP1;P1;durP2;ratioP2;P2;SDS_P1;SDS_P2;PMS_P1;PMS_P2;Temp;Humidity;BMP_temperature;BMP_pressure;BME280_temperature;BME280_humidity;BME280_pressure;Samples;Min_cycle;Max_cycle;Signal;HPM_P1;HPM_P2
2022/04/10 00:00:59;;;;;;;15.85;2.90;;;3.70;99.90;;;;;;5040239;28;20036;-82
2022/04/10 00:03:25;;;;;;;13.65;2.83;;;4.50;99.90;;;;;;5041229;28;20296;-83
2022/04/10 00:05:52;;;;;;;10.98;2.50;;;4.60;99.90;;;;;;5042195;28;20290;-80
2022/04/10 00:08:18;;;;;;;14.48;2.95;;;4.30;99.90;;;;;;5058642;28;20016;-84
2022/04/10 00:10:44;;;;;;;13.32;3.10;;;3.50;99.90;;;;;;5024947;28;20037;-84
2022/04/10 00:13:11;;;;;;;18.83;3.03;;;3.60;99.90;;;;;;5056907;28;20263;-82
2022/04/10 00:15:37;;;;;;;13.85;2.90;;;3.60;99.90;;;;;;5056573;28;20032;-83
2022/04/10 00:18:03;;;;;;;15.75;3.40;;;3.60;99.90;;;;;;5042454;28;20024;-83
2022/04/10 00:20:29;;;;;;;15.80;2.88;;;5.60;99.90;;;;;;5042162;28;20037;-83
2022/04/10 00:22:55;;;;;;;18.05;3.28;;;3.60;99.90;;;;;;5056110;28;20086;-83
2022/04/10 00:25:21;;;;;;;18.52;3.45;;;3.60;99.90;;;;;;5058774;28;20021;-83
2022/04/10 00:27:47;;;;;;;15.02;3.03;;;5.20;99.90;;;;;;5057201;28;20028;-84
2022/04/10 00:30:15;;;;;;;16.60;3.03;;;3.60;99.90;;;;;;5057835;28;20041;-86
2022/04/10 00:32:41;;;;;;;14.65;2.92;;;3.60;99.90;;;;;;5037853;28;20026;-84
2022/04/10 00:35:09;;;;;;;13.80;3.03;;;3.70;99.90;;;;;;5073264;28;20021;-84
2022/04/10 00:37:36;;;;;;;14.80;2.67;;;3.60;99.90;;;;;;5054239;28;20017;-82
2022/04/10 00:40:06;;;;;;;16.90;3.38;;;3.90;99.90;;;;;;5056162;28;20275;-82
2022/04/10 00:42:33;;;;;;;14.20;3.20;;;3.70;99.90;;;;;;5057542;28;20025;-83
2022/04/10 00:44:59;;;;;;;15.85;3.13;;;3.80;99.90;;;;;;5057476;28;20035;-83
2022/04/10 00:47:28;;;;;;;16.58;3.30;;;4.70;99.90;;;;;;5053866;28;20032;-84
2022/04/10 00:49:57;;;;;;;17.67;4.15;;;5.30;99.90;;;;;;5059716;28;20040;-83
2022/04/10 00:52:25;;;;;;;19.60;3.35;;;3.80;99.90;;;;;;5040583;28;20040;-83
2022/04/10 00:54:55;;;;;;;12.60;2.58;;;3.90;99.90;;;;;;5054667;28;20242;-83
2022/04/10 00:57:21;;;;;;;12.88;2.75;;;5.10;99.90;;;;;;5056148;28;20033;-83
2022/04/10 00:59:47;;;;;;;13.50;2.70;;;5.80;99.90;;;;;;5056316;28;20071;-84
2022/04/10 01:02:12;;;;;;;15.90;3.25;;;5.00;99.90;;;;;;5040828;28;20021;-83
2022/04/10 01:04:39;;;;;;;14.35;3.10;;;3.80;99.90;;;;;;5036060;28;20100;-83
2022/04/10 01:07:06;;;;;;;18.70;2.97;;;3.70;99.90;;;;;;5076213;28;20029;-84
2022/04/10 01:09:33;;;;;;;16.17;3.13;;;4.80;99.90;;;;;;5042198;28;20028;-83
2022/04/10 01:11:59;;;;;;;14.55;3.33;;;3.70;99.90;;;;;;5055914;28;20022;-82
2022/04/10 01:14:25;;;;;;;12.88;2.58;;;5.60;99.90;;;;;;5060207;28;20174;-83
2022/04/10 01:16:51;;;;;;;14.65;2.95;;;3.60;99.90;;;;;;5043417;28;20021;-82
2022/04/10 01:19:18;;;;;;;15.73;2.95;;;4.00;99.90;;;;;;5059066;28;20013;-83
2022/04/10 01:21:46;;;;;;;16.30;3.10;;;3.60;99.90;;;;;;5061732;28;20075;-84
2022/04/10 01:24:13;;;;;;;19.05;3.75;;;3.60;99.90;;;;;;5029414;28;20205;-85
2022/04/10 01:26:41;;;;;;;14.15;2.75;;;3.70;99.90;;;;;;5063109;28;20094;-83
2022/04/10 01:29:09;;;;;;;12.13;2.85;;;5.50;99.90;;;;;;5055889;28;20033;-85
2022/04/10 01:31:38;;;;;;;13.98;2.83;;;3.60;99.90;;;;;;5062046;28;20179;-84
2022/04/10 01:34:06;;;;;;;15.65;3.00;;;3.60;99.90;;;;;;5057663;28;20036;-84
2022/04/10 01:36:33;;;;;;;14.30;3.13;;;3.60;99.90;;;;;;5075872;28;20204;-84
2022/04/10 01:39:00;;;;;;;11.40;2.80;;;3.60;99.90;;;;;;5046047;28;20033;-84
2022/04/10 01:41:28;;;;;;;11.23;2.47;;;4.20;99.90;;;;;;5040847;28;20368;-83
2022/04/10 01:43:55;;;;;;;14.73;2.78;;;3.50;99.90;;;;;;5059074;28;20067;-84
2022/04/10 01:46:22;;;;;;;15.25;2.60;;;3.50;99.90;;;;;;5061474;28;20279;-83
2022/04/10 01:48:48;;;;;;;15.23;2.70;;;3.50;99.90;;;;;;5056862;28;20013;-83
2022/04/10 01:51:15;;;;;;;12.98;2.83;;;3.50;99.90;;;;;;5061698;28;20054;-83
2022/04/10 01:53:41;;;;;;;12.88;2.63;;;3.50;99.90;;;;;;5044509;28;20024;-82
2022/04/10 01:56:08;;;;;;;13.77;2.50;;;3.50;99.90;;;;;;5042436;28;20041;-83
2022/04/10 01:58:39;;;;;;;16.88;2.80;;;4.10;99.90;;;;;;5061505;28;20267;-84
2022/04/10 02:01:07;;;;;;;17.85;3.00;;;3.70;99.90;;;;;;5042329;28;20036;-83
2022/04/10 02:03:34;;;;;;;12.45;2.88;;;;;;;;;;5059540;28;20041;-84
2022/04/10 02:06:02;;;;;;;14.82;3.10;;;3.50;99.90;;;;;;5063129;28;20060;-84
2022/04/10 02:08:29;;;;;;;15.00;2.90;;;3.50;99.90;;;;;;5062003;28;20017;-83
2022/04/10 02:10:55;;;;;;;14.43;2.75;;;3.50;99.90;;;;;;5055216;28;20022;-85
2022/04/10 02:13:22;;;;;;;14.65;3.70;;;3.50;99.90;;;;;;5060375;28;20255;-84
2022/04/10 02:15:48;;;;;;;13.38;2.70;;;3.40;99.90;;;;;;5061536;28;20151;-83
2022/04/10 02:18:14;;;;;;;15.98;2.45;;;3.40;99.90;;;;;;5051396;28;20033;-83
2022/04/10 02:20:40;;;;;;;14.27;2.95;;;3.60;99.90;;;;;;5055723;28;20032;-83
2022/04/10 02:23:06;;;;;;;18.55;3.22;;;3.30;99.90;;;;;;5041506;28;20037;-83
2022/04/10 02:25:32;;;;;;;15.60;2.90;;;4.50;99.90;;;;;;5061193;28;20056;-83
2022/04/10 02:27:57;;;;;;;14.65;3.17;;;3.40;99.90;;;;;;5059720;28;20051;-83
2022/04/10 02:30:23;;;;;;;17.60;3.00;;;4.20;99.90;;;;;;5060470;28;20153;-83
2022/04/10 02:32:49;;;;;;;13.98;2.88;;;3.40;99.90;;;;;;5060326;28;20029;-83
2022/04/10 02:35:15;;;;;;;13.70;3.33;;;4.50;99.90;;;;;;5061328;28;20047;-84
2022/04/10 02:37:45;;;;;;;14.85;3.00;;;3.30;99.90;;;;;;5044825;28;20063;-85
2022/04/10 02:40:14;;;;;;;15.35;2.92;;;3.20;99.90;;;;;;5057444;28;20109;-83
2022/04/10 02:42:40;;;;;;;20.35;2.80;;;3.20;99.90;;;;;;5061138;28;20271;-83
2022/04/10 02:45:07;;;;;;;15.35;2.83;;;3.50;99.90;;;;;;5056290;28;20040;-83
2022/04/10 02:47:33;;;;;;;12.70;3.00;;;3.10;99.90;;;;;;5058582;28;20036;-83
2022/04/10 02:49:59;;;;;;;15.80;3.15;;;3.70;99.90;;;;;;5060688;28;20017;-85
2022/04/10 02:52:28;;;;;;;15.00;2.90;;;3.00;99.90;;;;;;5056297;28;20358;-83
2022/04/10 02:54:53;;;;;;;16.73;3.00;;;3.60;99.90;;;;;;5038923;28;20036;-83
2022/04/10 02:57:19;;;;;;;12.45;2.78;;;3.40;99.90;;;;;;5060012;28;20029;-83
2022/04/10 02:59:45;;;;;;;14.68;2.63;;;3.00;99.90;;;;;;5062377;28;20021;-84
2022/04/10 03:02:11;;;;;;;15.88;3.03;;;3.20;99.90;;;;;;5054960;28;20029;-82
2022/04/10 03:04:36;;;;;;;16.77;3.10;;;3.00;99.90;;;;;;5038130;28;20099;-84
2022/04/10 03:07:03;;;;;;;13.75;3.13;;;;;;;;;;5044061;28;20186;-83
2022/04/10 03:09:29;;;;;;;14.35;2.85;;;3.10;99.90;;;;;;5041572;28;20009;-85
2022/04/10 03:11:55;;;;;;;14.00;2.85;;;3.10;99.90;;;;;;5060246;28;20044;-85
2022/04/10 03:14:21;;;;;;;10.15;2.40;;;3.80;99.90;;;;;;5040340;28;20212;-84
2022/04/10 03:16:47;;;;;;;16.70;3.22;;;3.90;99.90;;;;;;5056059;28;20028;-83
2022/04/10 03:19:13;;;;;;;12.18;2.80;;;3.20;99.90;;;;;;5057828;28;20268;-84
2022/04/10 03:21:38;;;;;;;10.13;2.88;;;4.10;99.90;;;;;;5042173;28;20101;-83
2022/04/10 03:24:05;;;;;;;16.38;3.03;;;3.10;99.90;;;;;;5060953;28;20036;-84
2022/04/10 03:26:30;;;;;;;12.00;2.80;;;3.20;99.90;;;;;;5042882;28;20060;-82
2022/04/10 03:28:56;;;;;;;10.90;2.92;;;3.80;99.90;;;;;;5077210;28;20037;-83
2022/04/10 03:31:23;;;;;;;10.15;2.28;;;3.20;99.90;;;;;;5039125;28;20030;-82
2022/04/10 03:33:50;;;;;;;16.80;3.08;;;3.20;99.90;;;;;;5060971;28;20028;-82
2022/04/10 03:36:16;;;;;;;15.43;2.72;;;3.20;99.90;;;;;;5052636;28;20105;-84
2022/04/10 03:38:42;;;;;;;12.13;2.70;;;4.80;99.90;;;;;;5037504;28;20256;-83
2022/04/10 03:41:09;;;;;;;10.50;2.67;;;3.30;99.90;;;;;;5075878;28;20406;-82
2022/04/10 03:43:34;;;;;;;15.07;2.85;;;4.50;99.90;;;;;;5043739;28;20088;-82
2022/04/10 03:46:00;;;;;;;11.63;2.50;;;3.30;99.90;;;;;;5059050;28;20025;-82
2022/04/10 03:48:26;;;;;;;13.45;2.47;;;3.70;99.90;;;;;;5059666;28;20032;-83
2022/04/10 03:50:52;;;;;;;12.75;2.13;;;3.30;99.90;;;;;;5059741;28;20028;-83
2022/04/10 03:53:18;;;;;;;13.10;2.40;;;3.40;99.90;;;;;;5059598;28;20033;-83
2022/04/10 03:55:44;;;;;;;11.95;2.47;;;4.50;99.90;;;;;;5040211;28;20047;-84
2022/04/10 03:58:09;;;;;;;9.82;2.28;;;3.70;99.90;;;;;;5057626;28;20138;-84
2022/04/10 04:00:35;;;;;;;9.90;2.22;;;3.60;99.90;;;;;;5049848;28;20219;-83
2022/04/10 04:03:01;;;;;;;9.35;2.03;;;4.70;99.90;;;;;;5060086;28;20044;-83
2022/04/10 04:05:27;;;;;;;9.00;1.98;;;5.20;99.90;;;;;;5042429;28;20107;-83
2022/04/10 04:07:53;;;;;;;10.35;2.10;;;4.80;99.90;;;;;;5075274;28;20331;-83
2022/04/10 04:10:19;;;;;;;11.07;2.13;;;3.60;99.90;;;;;;5060581;28;20064;-82
2022/04/10 04:12:45;;;;;;;10.52;2.00;;;3.60;99.90;;;;;;5074021;28;20092;-83
2022/04/10 04:15:13;;;;;;;12.60;2.75;;;3.50;99.90;;;;;;5040226;28;20030;-84
2022/04/10 04:17:39;;;;;;;7.43;2.00;;;5.00;99.90;;;;;;5060856;28;20070;-84
2022/04/10 04:20:06;;;;;;;8.63;1.90;;;3.70;99.90;;;;;;5058930;28;20125;-84
2022/04/10 04:22:33;;;;;;;9.35;2.05;;;3.70;99.90;;;;;;5058855;28;20099;-85
2022/04/10 04:24:59;;;;;;;10.02;3.10;;;4.00;99.90;;;;;;5075926;28;20084;-82
2022/04/10 04:27:25;;;;;;;6.93;2.00;;;3.70;99.90;;;;;;5059462;28;20024;-82
2022/04/10 04:29:51;;;;;;;10.55;2.03;;;3.70;99.90;;;;;;5058849;28;20222;-83
2022/04/10 04:32:16;;;;;;;11.32;1.90;;;3.80;99.90;;;;;;5029685;28;20052;-82
2022/04/10 04:34:42;;;;;;;8.23;1.85;;;3.60;99.90;;;;;;5056105;28;20228;-84
2022/04/10 04:37:09;;;;;;;10.07;2.05;;;4.90;99.90;;;;;;5060042;28;20085;-83
2022/04/10 04:39:35;;;;;;;8.63;1.85;;;3.50;99.90;;;;;;5031654;28;20163;-84
2022/04/10 04:42:01;;;;;;;10.27;2.10;;;4.10;99.90;;;;;;5057898;28;20017;-84
2022/04/10 04:44:30;;;;;;;12.00;2.20;;;3.50;99.90;;;;;;5054626;28;20282;-83
2022/04/10 04:46:57;;;;;;;7.72;1.77;;;3.50;99.90;;;;;;5056257;28;20157;-83
2022/04/10 04:49:22;;;;;;;9.23;2.28;;;3.60;99.90;;;;;;5059267;28;20146;-84
2022/04/10 04:51:48;;;;;;;8.75;2.15;;;3.40;99.90;;;;;;5060403;28;20203;-82
2022/04/10 04:54:14;;;;;;;9.05;1.92;;;3.30;99.90;;;;;;5043764;28;20067;-83
2022/04/10 04:56:40;;;;;;;7.28;1.90;;;3.50;99.90;;;;;;5063474;28;20311;-82
2022/04/10 04:59:06;;;;;;;11.63;2.10;;;5.10;99.90;;;;;;4373712;28;9999953;-82
2022/04/10 05:01:31;;;;;;;6.03;1.80;;;3.20;99.90;;;;;;5035914;28;20025;-84
2022/04/10 05:03:57;;;;;;;9.90;2.17;;;3.70;99.90;;;;;;5060179;28;20047;-83
2022/04/10 05:06:25;;;;;;;9.88;2.40;;;3.20;99.90;;;;;;5059712;28;20302;-82
2022/04/10 05:08:51;;;;;;;11.32;2.10;;;4.80;99.90;;;;;;5061103;28;20056;-83
2022/04/10 05:11:17;;;;;;;8.45;2.15;;;3.20;99.90;;;;;;5061499;28;20028;-84
2022/04/10 05:13:46;;;;;;;7.85;2.03;;;3.80;99.90;;;;;;5063702;28;20021;-85
2022/04/10 05:16:11;;;;;;;8.95;2.05;;;3.20;99.90;;;;;;5056162;28;20025;-82
2022/04/10 05:18:37;;;;;;;10.63;2.30;;;3.70;99.90;;;;;;5056541;28;20658;-82
2022/04/10 05:21:03;;;;;;;10.52;2.10;;;4.90;99.90;;;;;;5063060;28;20118;-84
2022/04/10 05:23:29;;;;;;;10.65;2.60;;;3.00;99.90;;;;;;5058000;28;20021;-82
2022/04/10 05:25:55;;;;;;;13.02;2.38;;;3.30;99.90;;;;;;5058990;28;20047;-83
2022/04/10 05:28:22;;;;;;;14.15;2.88;;;4.50;99.90;;;;;;5060366;28;20036;-85
2022/04/10 05:30:48;;;;;;;11.52;2.33;;;3.40;99.90;;;;;;5055803;28;20183;-83
2022/04/10 05:33:14;;;;;;;10.15;2.10;;;3.50;99.90;;;;;;5035103;28;20044;-82
2022/04/10 05:35:40;;;;;;;12.20;2.22;;;5.20;99.90;;;;;;5061240;28;20088;-83
2022/04/10 05:38:06;;;;;;;9.82;2.38;;;5.30;99.90;;;;;;5061344;28;20166;-84
2022/04/10 05:40:32;;;;;;;13.00;2.58;;;4.40;99.90;;;;;;5043227;28;20145;-85
2022/04/10 05:43:00;;;;;;;13.88;2.50;;;3.70;99.90;;;;;;5044554;28;20260;-84
2022/04/10 05:45:26;;;;;;;11.65;1.90;;;3.70;99.90;;;;;;5058946;28;20329;-84
2022/04/10 05:47:52;;;;;;;12.02;2.25;;;3.80;99.90;;;;;;5061224;28;20087;-83
2022/04/10 05:50:18;;;;;;;9.52;2.13;;;3.90;99.90;;;;;;5059443;28;20056;-85
2022/04/10 05:52:46;;;;;;;8.55;2.00;;;5.70;99.90;;;;;;5041568;28;20067;-83
2022/04/10 05:55:15;;;;;;;13.55;2.50;;;3.90;99.90;;;;;;5055640;28;20036;-84
2022/04/10 05:57:42;;;;;;;7.75;2.10;;;4.00;99.90;;;;;;5061137;28;20036;-85
2022/04/10 06:00:10;;;;;;;10.40;2.20;;;4.30;99.90;;;;;;5075269;28;20036;-83
2022/04/10 06:02:37;;;;;;;14.65;2.60;;;4.10;99.90;;;;;;5059098;28;20243;-84
2022/04/10 06:05:04;;;;;;;14.30;2.25;;;4.50;99.90;;;;;;5055691;28;20045;-83
2022/04/10 06:07:29;;;;;;;12.32;2.55;;;4.10;99.90;;;;;;5039154;28;20063;-83
2022/04/10 06:09:55;;;;;;;10.35;1.98;;;4.10;99.90;;;;;;5058796;28;20048;-84
2022/04/10 06:12:24;;;;;;;11.10;2.30;;;5.40;99.90;;;;;;5061999;28;20100;-84
2022/04/10 06:14:50;;;;;;;8.40;2.25;;;4.20;99.90;;;;;;5060451;28;20021;-83
2022/04/10 06:17:16;;;;;;;10.45;2.20;;;5.60;99.90;;;;;;5043034;28;20287;-83
2022/04/10 06:19:42;;;;;;;12.75;2.45;;;4.40;99.90;;;;;;5042770;28;20059;-83
2022/04/10 06:22:08;;;;;;;9.77;2.58;;;4.50;99.90;;;;;;5060633;28;20161;-83
2022/04/10 06:24:35;;;;;;;13.10;2.47;;;4.50;99.90;;;;;;5036392;28;20219;-83
2022/04/10 06:27:01;;;;;;;11.98;2.67;;;4.60;99.90;;;;;;5060946;28;20017;-82
2022/04/10 06:29:27;;;;;;;12.75;2.50;;;4.20;99.90;;;;;;5058346;28;20025;-83
2022/04/10 06:31:54;;;;;;;9.68;2.20;;;;;;;;;;5060848;28;20020;-86
2022/04/10 06:34:20;;;;;;;9.45;2.63;;;;;;;;;;5042686;28;20021;-84
2022/04/10 06:36:47;;;;;;;8.55;2.30;;;3.70;99.90;;;;;;5040182;28;20063;-82
2022/04/10 06:39:14;;;;;;;8.52;2.22;;;5.20;99.90;;;;;;5059287;28;20286;-84
2022/04/10 06:41:39;;;;;;;10.18;2.22;;;4.40;99.90;;;;;;5056286;28;20047;-83
2022/04/10 06:44:05;;;;;;;9.45;2.20;;;3.60;99.90;;;;;;5058598;28;20283;-84
2022/04/10 06:46:31;;;;;;;9.43;2.20;;;3.70;99.90;;;;;;5054186;28;20268;-84
2022/04/10 06:48:57;;;;;;;11.63;2.50;;;4.10;99.90;;;;;;5059751;28;20062;-84
2022/04/10 06:51:26;;;;;;;13.20;2.60;;;5.40;99.90;;;;;;5037109;28;20027;-83
2022/04/10 06:53:51;;;;;;;11.30;2.50;;;4.20;99.90;;;;;;5075696;28;20294;-84
2022/04/10 06:56:17;;;;;;;11.68;2.47;;;6.10;99.90;;;;;;5073338;28;20426;-83
2022/04/10 06:58:43;;;;;;;12.80;2.42;;;4.50;99.90;;;;;;5033545;28;20021;-82
2022/04/10 07:01:09;;;;;;;10.02;2.45;;;5.90;99.90;;;;;;5039965;28;20230;-83
2022/04/10 07:03:35;;;;;;;13.00;2.70;;;6.50;99.90;;;;;;5061575;28;20116;-81
2022/04/10 07:06:01;;;;;;;10.80;2.70;;;4.90;99.90;;;;;;5059136;28;20327;-82
2022/04/10 07:08:27;;;;;;;12.77;2.80;;;5.00;99.90;;;;;;5058019;28;20029;-83
2022/04/10 07:10:53;;;;;;;13.43;2.60;;;5.10;99.90;;;;;;5042334;28;20090;-82
2022/04/10 07:13:21;;;;;;;12.50;2.55;;;5.30;99.90;;;;;;5043797;28;20080;-82
2022/04/10 07:15:49;;;;;;;10.82;2.30;;;5.50;99.90;;;;;;5055044;28;20028;-81
2022/04/10 07:18:16;;;;;;;10.43;2.03;;;6.10;99.90;;;;;;5058460;28;20063;-83
2022/04/10 07:20:41;;;;;;;12.63;2.30;;;5.70;99.90;;;;;;5057656;28;20417;-82
2022/04/10 07:25:53;;;;;;;9.27;2.10;;;5.70;99.90;;;;;;5056288;28;20204;-82
2022/04/10 07:28:19;;;;;;;10.75;2.45;;;5.90;99.90;;;;;;5058208;28;20032;-83
2022/04/10 07:30:45;;;;;;;11.68;2.30;;;5.50;99.90;;;;;;5059094;28;20084;-83
2022/04/10 07:33:11;;;;;;;11.52;2.28;;;5.60;99.90;;;;;;5032912;28;20067;-84
2022/04/10 07:35:40;;;;;;;10.35;2.53;;;5.60;99.90;;;;;;5041443;28;20036;-83
2022/04/10 07:38:06;;;;;;;11.10;2.30;;;5.70;99.90;;;;;;5059002;28;20027;-83
2022/04/10 07:40:38;;;;;;;9.90;2.38;;;5.80;99.90;;;;;;5058882;28;20025;-83
2022/04/10 07:43:04;;;;;;;15.05;2.72;;;6.30;99.90;;;;;;5058384;28;20196;-83
2022/04/10 07:48:15;;;;;;;14.52;2.67;;;6.20;99.90;;;;;;5057776;28;20220;-81
2022/04/10 07:50:40;;;;;;;13.27;2.65;;;6.50;99.90;;;;;;5059988;28;20228;-82
2022/04/10 07:53:06;;;;;;;11.80;2.63;;;6.30;99.90;;;;;;5035808;28;20125;-83
2022/04/10 07:55:32;;;;;;;9.23;2.35;;;6.80;99.90;;;;;;5048424;28;20020;-82
2022/04/10 07:57:58;;;;;;;9.93;2.10;;;6.70;99.90;;;;;;5062869;28;20036;-82
2022/04/10 08:00:24;;;;;;;10.98;2.08;;;6.80;99.90;;;;;;5052505;28;20032;-82
2022/04/10 08:02:49;;;;;;;10.00;2.35;;;8.00;99.90;;;;;;5025346;28;20033;-82
2022/04/10 08:05:17;;;;;;;10.65;2.45;;;7.00;99.90;;;;;;5043338;28;20053;-82
2022/04/10 08:07:44;;;;;;;11.48;2.40;;;7.00;99.90;;;;;;5062182;28;20052;-82
2022/04/10 08:10:12;;;;;;;9.15;2.17;;;6.90;99.90;;;;;;5061090;28;20035;-82
2022/04/10 08:12:41;;;;;;;13.60;2.00;;;6.90;99.90;;;;;;5044751;28;20319;-82
2022/04/10 08:15:08;;;;;;;11.60;2.30;;;6.90;99.90;;;;;;5061490;28;20082;-84
2022/04/10 08:17:34;;;;;;;10.55;2.13;;;7.00;99.90;;;;;;5039319;28;20030;-83
2022/04/10 08:20:04;;;;;;;8.68;2.13;;;6.90;99.90;;;;;;5048274;28;20030;-83
2022/04/10 08:22:32;;;;;;;11.55;2.65;;;7.30;99.90;;;;;;5031688;28;20049;-84
2022/04/10 08:25:11;;;;;;;9.10;2.08;;;6.90;99.90;;;;;;5054074;28;20315;-82
2022/04/10 08:27:37;;;;;;;9.70;2.33;;;7.00;99.90;;;;;;5052383;28;20040;-83
2022/04/10 08:30:09;;;;;;;10.32;2.63;;;7.20;99.90;;;;;;5031999;28;20037;-84
2022/04/10 08:32:40;;;;;;;9.35;2.25;;;7.50;99.90;;;;;;5049151;28;20035;-83
2022/04/10 08:35:07;;;;;;;13.82;2.65;;;7.60;99.90;;;;;;5062688;28;20064;-83
2022/04/10 08:37:43;;;;;;;11.52;2.22;;;7.50;99.90;;;;;;5060926;28;20247;-83
2022/04/10 08:40:10;;;;;;;8.05;1.98;;;7.50;99.90;;;;;;5046277;28;20029;-82
2022/04/10 08:42:36;;;;;;;10.65;2.00;;;7.50;99.90;;;;;;5042331;28;20167;-84
2022/04/10 08:45:03;;;;;;;12.55;2.60;;;7.90;99.90;;;;;;5024784;28;20272;-82
2022/04/10 08:47:30;;;;;;;12.32;2.30;;;7.90;99.90;;;;;;5047717;28;20017;-81
2022/04/10 08:49:57;;;;;;;9.68;2.10;;;7.70;99.90;;;;;;5056610;28;20182;-84
2022/04/10 08:52:22;;;;;;;9.48;2.13;;;7.60;99.90;;;;;;5040457;28;20028;-83
2022/04/10 08:54:49;;;;;;;9.45;2.33;;;7.80;99.90;;;;;;5058124;28;20075;-84
2022/04/10 08:57:16;;;;;;;10.88;2.20;;;7.70;99.90;;;;;;5040287;28;20032;-82
2022/04/10 08:59:42;;;;;;;12.05;2.40;;;7.90;99.90;;;;;;5059402;28;20029;-83
2022/04/10 09:02:10;;;;;;;9.05;2.10;;;7.70;99.90;;;;;;5057912;28;20028;-83
2022/04/10 09:04:42;;;;;;;11.15;2.30;;;7.70;99.90;;;;;;5057302;28;20101;-86
2022/04/10 09:07:09;;;;;;;14.23;2.60;;;7.70;99.90;;;;;;5017224;28;20048;-82
2022/04/10 09:09:40;;;;;;;11.73;2.42;;;7.80;99.90;;;;;;5037785;28;20391;-83
2022/04/10 09:12:06;;;;;;;8.52;2.10;;;7.80;99.90;;;;;;5034675;28;20133;-81
2022/04/10 09:14:37;;;;;;;9.73;2.15;;;7.80;99.90;;;;;;5075526;28;20088;-84
2022/04/10 09:17:12;;;;;;;10.70;2.22;;;7.80;99.90;;;;;;5060216;28;20108;-82
2022/04/10 09:19:41;;;;;;;10.20;1.90;;;8.00;99.90;;;;;;5056941;28;20021;-84
2022/04/10 09:22:26;;;;;;;11.02;2.10;;;8.20;99.90;;;;;;5060395;28;20025;-82
2022/04/10 09:25:11;;;;;;;8.82;1.92;;;8.10;99.90;;;;;;5056640;28;20086;-83
2022/04/10 09:27:48;;;;;;;8.10;1.98;;;8.10;99.90;;;;;;5057406;28;20049;-83
2022/04/10 09:30:16;;;;;;;7.45;1.80;;;8.10;99.90;;;;;;5040403;28;20243;-84
2022/04/10 09:32:52;;;;;;;7.68;1.80;;;8.20;99.90;;;;;;5059858;28;20224;-81
2022/04/10 09:35:21;;;;;;;7.95;1.73;;;8.30;99.90;;;;;;5074230;28;20029;-81
2022/04/10 09:37:51;;;;;;;9.88;1.85;;;8.30;99.90;;;;;;5051099;28;20092;-83
2022/04/10 09:40:22;;;;;;;7.97;2.03;;;8.40;99.90;;;;;;5034183;28;20029;-79
2022/04/10 09:42:56;;;;;;;8.30;1.80;;;8.40;99.90;;;;;;5060826;28;20262;-83
2022/04/10 09:45:30;;;;;;;11.85;2.00;;;8.20;99.90;;;;;;5061340;28;20036;-82
2022/04/10 09:47:56;;;;;;;7.15;1.80;;;;;;;;;;5036609;28;20059;-81
2022/04/10 09:50:32;;;;;;;11.45;2.20;;;8.20;99.90;;;;;;5061782;28;20150;-81
2022/04/10 09:53:05;;;;;;;8.35;2.10;;;6.70;99.90;;;;;;5055812;28;20139;-81
2022/04/10 09:55:39;;;;;;;11.73;2.45;;;8.50;99.90;;;;;;5060537;28;20258;-80
2022/04/10 09:58:10;;;;;;;10.18;2.20;;;8.40;99.90;;;;;;5058091;28;20075;-82
2022/04/10 10:00:38;;;;;;;12.27;2.17;;;8.10;99.90;;;;;;5052940;28;20036;-80
2022/04/10 10:03:05;;;;;;;9.32;2.08;;;8.00;99.90;;;;;;5034883;28;20033;-80
2022/04/10 10:05:32;;;;;;;6.75;1.95;;;8.60;99.90;;;;;;5049844;28;20040;-80
2022/04/10 10:07:59;;;;;;;11.65;2.55;;;7.90;99.90;;;;;;5054938;28;20088;-82
2022/04/10 10:10:28;;;;;;;6.13;1.65;;;8.10;99.90;;;;;;5064580;28;20251;-80
2022/04/10 10:12:55;;;;;;;9.90;2.03;;;8.10;99.90;;;;;;5059101;28;20032;-81
2022/04/10 10:15:21;;;;;;;9.10;1.85;;;8.30;99.90;;;;;;5045671;28;20040;-81
2022/04/10 10:17:47;;;;;;;8.85;1.90;;;8.30;99.90;;;;;;5058197;28;20071;-82
2022/04/10 10:20:14;;;;;;;8.25;1.90;;;8.40;99.90;;;;;;5042900;28;20022;-81
2022/04/10 10:22:40;;;;;;;10.02;1.90;;;8.70;99.90;;;;;;5041070;28;20025;-80
2022/04/10 10:25:11;;;;;;;6.93;1.90;;;8.80;99.90;;;;;;5045530;28;20088;-80
2022/04/10 10:27:47;;;;;;;7.75;1.55;;;8.70;99.90;;;;;;5062106;28;20028;-80
2022/04/10 10:30:46;;;;;;;12.15;2.30;;;8.50;99.90;;;;;;5058801;28;20021;-81
2022/04/10 10:33:23;;;;;;;9.40;1.95;;;8.60;99.90;;;;;;5052076;28;20200;-81
2022/04/10 10:35:52;;;;;;;8.88;1.83;;;8.60;99.90;;;;;;5059819;28;20256;-81
2022/04/10 10:38:22;;;;;;;11.27;2.33;;;8.70;99.90;;;;;;5056738;28;20021;-83
2022/04/10 10:40:49;;;;;;;10.52;2.22;;;8.60;99.90;;;;;;5060498;28;20020;-81
2022/04/10 10:43:24;;;;;;;6.65;1.80;;;8.60;99.90;;;;;;5049845;28;20022;-82
2022/04/10 10:45:54;;;;;;;8.27;1.67;;;8.80;99.90;;;;;;5055828;28;20032;-80
2022/04/10 10:48:32;;;;;;;12.43;2.05;;;8.80;99.90;;;;;;5052316;28;20013;-81
2022/04/10 10:51:30;;;;;;;6.10;1.60;;;8.90;99.90;;;;;;5061104;28;20027;-82
2022/04/10 10:53:58;;;;;;;9.57;2.10;;;8.70;99.90;;;;;;5050162;28;20025;-82
2022/04/10 10:56:32;;;;;;;8.77;1.85;;;8.60;99.90;;;;;;5057549;28;20100;-83
2022/04/10 10:59:26;;;;;;;8.80;1.90;;;8.70;99.90;;;;;;5059799;28;20033;-82
2022/04/10 11:01:53;;;;;;;9.02;1.90;;;8.90;99.90;;;;;;5042373;28;20024;-83
2022/04/10 11:04:22;;;;;;;9.18;1.85;;;9.10;99.90;;;;;;5036886;28;20049;-82
2022/04/10 11:06:48;;;;;;;5.00;1.60;;;9.30;99.90;;;;;;5054966;28;20098;-82
2022/04/10 11:09:31;;;;;;;7.25;1.85;;;9.30;99.90;;;;;;5053219;28;20145;-83
2022/04/10 11:11:59;;;;;;;11.02;1.83;;;9.30;99.90;;;;;;5051035;28;20032;-82
2022/04/10 11:14:38;;;;;;;8.25;2.03;;;9.30;99.90;;;;;;5051529;28;20022;-82
2022/04/10 11:17:18;;;;;;;7.55;2.10;;;9.30;99.90;;;;;;5058259;28;20029;-83
2022/04/10 11:19:52;;;;;;;10.40;1.70;;;9.10;99.90;;;;;;5056225;28;20035;-83
2022/04/10 11:22:30;;;;;;;7.15;1.70;;;9.30;99.90;;;;;;5030962;28;20142;-83
2022/04/10 11:25:00;;;;;;;7.40;1.80;;;9.30;99.90;;;;;;5060830;28;20035;-83
2022/04/10 11:27:49;;;;;;;8.90;1.88;;;9.40;99.90;;;;;;5066307;28;20041;-82
2022/04/10 11:30:24;;;;;;;10.07;2.22;;;9.70;99.90;;;;;;5059009;28;20102;-82
2022/04/10 11:32:57;;;;;;;7.80;1.80;;;10.00;99.90;;;;;;5059975;28;20021;-83
2022/04/10 11:35:26;;;;;;;11.38;2.05;;;9.80;99.90;;;;;;5041878;28;20032;-82
2022/04/10 11:38:03;;;;;;;9.23;1.70;;;9.90;99.90;;;;;;5039065;28;20032;-84
2022/04/10 11:40:34;;;;;;;7.75;1.80;;;9.80;99.90;;;;;;5042400;28;20039;-81
2022/04/10 11:43:02;;;;;;;9.95;2.17;;;9.90;99.90;;;;;;5043744;28;20127;-83
2022/04/10 11:45:32;;;;;;;8.40;1.73;;;9.90;99.90;;;;;;5030353;28;20040;-85
2022/04/10 11:47:59;;;;;;;6.50;1.77;;;9.90;99.90;;;;;;5043519;28;20029;-84
2022/04/10 11:50:27;;;;;;;10.52;2.10;;;9.60;99.90;;;;;;5036195;28;20044;-83
2022/04/10 11:53:07;;;;;;;10.45;2.00;;;9.50;99.90;;;;;;5036691;28;20092;-83
2022/04/10 11:55:43;;;;;;;9.88;1.85;;;9.30;99.90;;;;;;5043887;28;20170;-82
2022/04/10 11:58:21;;;;;;;7.65;1.75;;;9.50;99.90;;;;;;5045387;28;20063;-82
2022/04/10 12:01:01;;;;;;;10.45;2.10;;;9.80;99.90;;;;;;5055649;28;20056;-81
2022/04/10 12:03:33;;;;;;;5.72;1.58;;;9.90;99.90;;;;;;5036141;28;20116;-81
2022/04/10 12:05:59;;;;;;;8.00;2.00;;;9.90;99.90;;;;;;5057178;28;20037;-84
2022/04/10 12:08:25;;;;;;;8.25;1.80;;;10.00;99.90;;;;;;5039221;28;20052;-84
2022/04/10 12:11:00;;;;;;;7.43;1.73;;;10.10;99.90;;;;;;5058532;28;20048;-83
2022/04/10 12:13:34;;;;;;;9.80;2.08;;;10.10;99.90;;;;;;5040562;28;20066;-84
2022/04/10 12:16:02;;;;;;;8.63;1.80;;;10.20;99.90;;;;;;5040917;28;20088;-84
2022/04/10 12:18:28;;;;;;;10.10;2.00;;;10.10;99.90;;;;;;5059594;28;20092;-86
2022/04/10 12:21:03;;;;;;;8.15;1.80;;;9.90;99.90;;;;;;5060403;28;20025;-83
2022/04/10 12:23:29;;;;;;;8.48;1.95;;;10.10;99.90;;;;;;5040284;28;20187;-82
2022/04/10 12:25:57;;;;;;;9.80;1.80;;;10.30;99.90;;;;;;5042927;28;20047;-83
2022/04/10 12:28:24;;;;;;;9.02;1.75;;;10.00;99.90;;;;;;5058105;28;20021;-83
2022/04/10 12:30:51;;;;;;;7.47;1.95;;;9.90;99.90;;;;;;5057968;28;20120;-82
2022/04/10 12:33:18;;;;;;;7.38;1.65;;;9.80;99.90;;;;;;5059115;28;20037;-85
2022/04/10 12:35:44;;;;;;;9.25;1.88;;;9.70;99.90;;;;;;5041108;28;20059;-82
2022/04/10 12:38:17;;;;;;;8.10;1.80;;;9.80;99.90;;;;;;5056738;28;20064;-82
2022/04/10 12:40:44;;;;;;;8.88;1.92;;;9.70;99.90;;;;;;5061314;28;20033;-83
2022/04/10 12:43:14;;;;;;;7.93;1.80;;;9.50;99.90;;;;;;5038307;28;20029;-82
2022/04/10 12:45:42;;;;;;;8.95;1.83;;;9.50;99.90;;;;;;5033108;28;20021;-83
2022/04/10 12:48:24;;;;;;;9.45;2.03;;;9.70;99.90;;;;;;5059283;28;20090;-83
2022/04/10 12:51:13;;;;;;;8.38;1.83;;;9.70;99.90;;;;;;5058805;28;20021;-82
2022/04/10 12:53:48;;;;;;;10.10;2.10;;;9.80;99.90;;;;;;5059195;28;20781;-83
2022/04/10 12:56:22;;;;;;;9.57;1.90;;;9.60;99.90;;;;;;5058992;28;20370;-82
2022/04/10 12:58:49;;;;;;;14.60;2.28;;;9.40;99.90;;;;;;5036703;28;20012;-84
2022/04/10 13:01:29;;;;;;;9.88;1.95;;;9.60;99.90;;;;;;5054599;28;20031;-84